sensor_id;sensor_type;location;lat;lon;timestamp;pressure;altitude;pressure_sealevel;temperature;humidity
56928;BME280;60850;52.502;13.426;2023-03-03T00:00:06;101904.03;;;1.29;100.00
56928;BME280;60850;52.502;13.426;2023-03-03T00:02:54;101921.84;;;1.39;100.00
56928;BME280;60850;52.502;13.426;2023-03-03T00:05:23;101919.38;;;1.44;100.00
56928;BME280;60850;52.502;13.426;2023-03-03T00:07:50;101919.56;;;1.50;100.00
56928;BME280;60850;52.502;13.426;2023-03-03T00:10:18;101929.28;;;1.54;100.00
56928;BME280;60850;52.502;13.426;2023-03-03T00:12:48;101928.59;;;1.59;100.00
56928;BME280;60850;52.502;13.426;2023-03-03T00:15:17;101933.59;;;1.50;100.00
56928;BME280;60850;52.502;13.426;2023-03-03T00:17:44;101925.44;;;1.41;100.00
56928;BME280;60850;52.502;13.426;2023-03-03T00:20:38;101920.50;;;1.23;100.00
56928;BME280;60850;52.502;13.426;2023-03-03T00:23:19;101918.84;;;1.27;100.00
56928;BME280;60850;52.502;13.426;2023-03-03T00:25:52;101921.66;;;1.33;100.00
56928;BME280;60850;52.502;13.426;2023-03-03T00:28:23;101905.19;;;1.38;100.00
56928;BME280;60850;52.502;13.426;2023-03-03T00:30:52;101896.63;;;1.44;100.00
56928;BME280;60850;52.502;13.426;2023-03-03T00:33:25;101899.41;;;1.50;100.00
56928;BME280;60850;52.502;13.426;2023-03-03T00:36:25;101900.34;;;1.52;100.00
56928;BME280;60850;52.502;13.426;2023-03-03T00:39:18;101896.91;;;1.55;100.00
56928;BME280;60850;52.502;13.426;2023-03-03T00:41:49;101910.00;;;1.53;100.00
56928;BME280;60850;52.502;13.426;2023-03-03T00:44:38;101902.09;;;1.52;100.00
56928;BME280;60850;52.502;13.426;2023-03-03T00:47:26;101894.16;;;1.50;100.00
56928;BME280;60850;52.502;13.426;2023-03-03T00:50:14;101888.09;;;1.53;100.00
56928;BME280;60850;52.502;13.426;2023-03-03T00:52:47;101892.50;;;1.54;100.00
56928;BME280;60850;52.502;13.426;2023-03-03T00:55:16;101888.97;;;1.53;100.00
56928;BME280;60850;52.502;13.426;2023-03-03T00:57:44;101885.50;;;1.54;100.00
56928;BME280;60850;52.502;13.426;2023-03-03T01:00:13;101881.22;;;1.56;100.00
56928;BME280;60850;52.502;13.426;2023-03-03T01:02:40;101885.63;;;1.57;100.00
56928;BME280;60850;52.502;13.426;2023-03-03T01:05:09;101877.75;;;1.59;100.00
56928;BME280;60850;52.502;13.426;2023-03-03T01:07:38;101883.03;;;1.59;100.00
56928;BME280;60850;52.502;13.426;2023-03-03T01:10:06;101878.66;;;1.59;100.00
56928;BME280;60850;52.502;13.426;2023-03-03T01:12:33;101878.75;;;1.62;100.00
56928;BME280;60850;52.502;13.426;2023-03-03T01:15:02;101882.28;;;1.63;100.00
56928;BME280;60850;52.502;13.426;2023-03-03T01:17:29;101887.56;;;1.64;100.00
56928;BME280;60850;52.502;13.426;2023-03-03T01:19:56;101880.59;;;1.67;100.00
56928;BME280;60850;52.502;13.426;2023-03-03T01:22:23;101871.91;;;1.69;100.00
56928;BME280;60850;52.502;13.426;2023-03-03T01:24:50;101879.00;;;1.72;100.00
56928;BME280;60850;52.502;13.426;2023-03-03T01:27:17;101872.91;;;1.73;100.00
56928;BME280;60850;52.502;13.426;2023-03-03T01:29:44;101866.75;;;1.72;100.00
56928;BME280;60850;52.502;13.426;2023-03-03T01:32:12;101870.25;;;1.73;100.00
56928;BME280;60850;52.502;13.426;2023-03-03T01:34:39;101865.91;;;1.73;100.00
56928;BME280;60850;52.502;13.426;2023-03-03T01:37:06;101857.97;;;1.72;100.00
56928;BME280;60850;52.502;13.426;2023-03-03T01:39:33;101853.50;;;1.69;100.00
56928;BME280;60850;52.502;13.426;2023-03-03T01:42:01;101852.69;;;1.70;100.00
56928;BME280;60850;52.502;13.426;2023-03-03T01:44:28;101843.09;;;1.72;100.00
56928;BME280;60850;52.502;13.426;2023-03-03T01:46:56;101846.59;;;1.73;100.00
56928;BME280;60850;52.502;13.426;2023-03-03T01:49:30;101841.41;;;1.76;100.00
56928;BME280;60850;52.502;13.426;2023-03-03T01:52:02;101839.72;;;1.76;100.00
56928;BME280;60850;52.502;13.426;2023-03-03T01:54:33;101836.25;;;1.79;100.00
56928;BME280;60850;52.502;13.426;2023-03-03T01:57:05;101840.59;;;1.77;100.00
56928;BME280;60850;52.502;13.426;2023-03-03T01:59:40;101852.84;;;1.76;100.00
56928;BME280;60850;52.502;13.426;2023-03-03T02:02:09;101846.75;;;1.77;100.00
56928;BME280;60850;52.502;13.426;2023-03-03T02:04:38;101842.38;;;1.78;100.00
56928;BME280;60850;52.502;13.426;2023-03-03T02:07:06;101846.81;;;1.80;100.00
56928;BME280;60850;52.502;13.426;2023-03-03T02:09:42;101843.34;;;1.83;100.00
56928;BME280;60850;52.502;13.426;2023-03-03T02:12:16;101846.09;;;1.86;100.00
56928;BME280;60850;52.502;13.426;2023-03-03T02:15:15;101856.59;;;1.86;100.00
56928;BME280;60850;52.502;13.426;2023-03-03T02:17:42;101854.84;;;1.85;100.00
56928;BME280;60850;52.502;13.426;2023-03-03T02:20:15;101849.53;;;1.83;100.00
56928;BME280;60850;52.502;13.426;2023-03-03T02:22:51;101854.66;;;1.79;100.00
56928;BME280;60850;52.502;13.426;2023-03-03T02:25:27;101855.41;;;1.75;100.00
56928;BME280;60850;52.502;13.426;2023-03-03T02:27:58;101856.28;;;1.74;100.00
56928;BME280;60850;52.502;13.426;2023-03-03T02:30:26;101867.66;;;1.74;100.00
56928;BME280;60850;52.502;13.426;2023-03-03T02:32:53;101871.28;;;1.78;100.00
56928;BME280;60850;52.502;13.426;2023-03-03T02:35:31;101866.03;;;1.78;100.00
56928;BME280;60850;52.502;13.426;2023-03-03T02:38:06;101857.28;;;1.79;100.00
56928;BME280;60850;52.502;13.426;2023-03-03T02:40:39;101857.38;;;1.82;100.00
56928;BME280;60850;52.502;13.426;2023-03-03T02:43:10;101851.25;;;1.83;100.00
56928;BME280;60850;52.502;13.426;2023-03-03T02:45:42;101867.03;;;1.83;100.00
56928;BME280;60850;52.502;13.426;2023-03-03T02:48:09;101854.81;;;1.83;100.00
56928;BME280;60850;52.502;13.426;2023-03-03T02:50:36;101866.25;;;1.85;100.00
56928;BME280;60850;52.502;13.426;2023-03-03T02:53:03;101860.94;;;1.84;100.00
56928;BME280;60850;52.502;13.426;2023-03-03T02:55:30;101857.25;;;1.77;100.00
56928;BME280;60850;52.502;13.426;2023-03-03T02:57:57;101850.28;;;1.79;100.00
56928;BME280;60850;52.502;13.426;2023-03-03T03:00:25;101864.34;;;1.81;100.00
56928;BME280;60850;52.502;13.426;2023-03-03T03:02:52;101857.38;;;1.82;100.00
56928;BME280;60850;52.502;13.426;2023-03-03T03:05:19;101864.41;;;1.83;100.00
56928;BME280;60850;52.502;13.426;2023-03-03T03:07:46;101860.94;;;1.84;100.00
56928;BME280;60850;52.502;13.426;2023-03-03T03:10:13;101861.75;;;1.83;100.00
56928;BME280;60850;52.502;13.426;2023-03-03T03:12:40;101860.09;;;1.85;100.00
56928;BME280;60850;52.502;13.426;2023-03-03T03:15:07;101867.03;;;1.83;100.00
56928;BME280;60850;52.502;13.426;2023-03-03T03:17:37;101873.22;;;1.83;100.00
56928;BME280;60850;52.502;13.426;2023-03-03T03:20:05;101882.88;;;1.84;100.00
56928;BME280;60850;52.502;13.426;2023-03-03T03:22:33;101881.09;;;1.83;100.00
56928;BME280;60850;52.502;13.426;2023-03-03T03:25:00;101883.66;;;1.82;100.00
56928;BME280;60850;52.502;13.426;2023-03-03T03:27:27;101886.22;;;1.79;100.00
56928;BME280;60850;52.502;13.426;2023-03-03T03:29:54;101885.31;;;1.78;100.00
56928;BME280;60850;52.502;13.426;2023-03-03T03:32:21;101884.44;;;1.78;100.00
56928;BME280;60850;52.502;13.426;2023-03-03T03:34:49;101883.53;;;1.77;100.00
56928;BME280;60850;52.502;13.426;2023-03-03T03:37:16;101888.69;;;1.74;100.00
56928;BME280;60850;52.502;13.426;2023-03-03T03:39:43;101896.38;;;1.67;100.00
56928;BME280;60850;52.502;13.426;2023-03-03T03:42:10;101893.69;;;1.63;100.00
56928;BME280;60850;52.502;13.426;2023-03-03T03:44:37;101881.22;;;1.56;100.00
56928;BME280;60850;52.502;13.426;2023-03-03T03:47:04;101880.31;;;1.56;100.00
56928;BME280;60850;52.502;13.426;2023-03-03T03:49:31;101872.47;;;1.57;100.00
56928;BME280;60850;52.502;13.426;2023-03-03T03:51:59;101881.25;;;1.58;100.00
56928;BME280;60850;52.502;13.426;2023-03-03T03:54:27;101875.13;;;1.59;100.00
56928;BME280;60850;52.502;13.426;2023-03-03T03:56:54;101869.81;;;1.56;100.00
56928;BME280;60850;52.502;13.426;2023-03-03T03:59:21;101865.38;;;1.55;100.00
56928;BME280;60850;52.502;13.426;2023-03-03T04:01:47;101861.91;;;1.56;100.00
56928;BME280;60850;52.502;13.426;2023-03-03T04:04:15;101860.94;;;1.52;100.00
56928;BME280;60850;52.502;13.426;2023-03-03T04:06:41;101859.28;;;1.56;100.00
56928;BME280;60850;52.502;13.426;2023-03-03T04:09:10;101857.56;;;1.56;100.00
56928;BME280;60850;52.502;13.426;2023-03-03T04:11:37;101853.19;;;1.57;100.00
56928;BME280;60850;52.502;13.426;2023-03-03T04:14:04;101848.81;;;1.57;100.00
56928;BME280;60850;52.502;13.426;2023-03-03T04:16:31;101843.53;;;1.56;100.00
56928;BME280;60850;52.502;13.426;2023-03-03T04:18:58;101848.72;;;1.54;100.00
56928;BME280;60850;52.502;13.426;2023-03-03T04:21:25;101846.94;;;1.53;100.00
56928;BME280;60850;52.502;13.426;2023-03-03T04:23:52;101847.81;;;1.54;100.00
56928;BME280;60850;52.502;13.426;2023-03-03T04:26:20;101848.63;;;1.51;100.00
56928;BME280;60850;52.502;13.426;2023-03-03T04:28:47;101852.00;;;1.47;100.00
56928;BME280;60850;52.502;13.426;2023-03-03T04:31:14;101851.88;;;1.41;100.00
56928;BME280;60850;52.502;13.426;2023-03-03T04:33:41;101850.00;;;1.37;100.00
56928;BME280;60850;52.502;13.426;2023-03-03T04:36:08;101841.97;;;1.32;100.00
56928;BME280;60850;52.502;13.426;2023-03-03T04:38:35;101846.34;;;1.32;100.00
56928;BME280;60850;52.502;13.426;2023-03-03T04:41:02;101845.56;;;1.34;100.00
56928;BME280;60850;52.502;13.426;2023-03-03T04:43:30;101839.41;;;1.34;100.00
56928;BME280;60850;52.502;13.426;2023-03-03T04:45:57;101839.13;;;1.25;100.00
56928;BME280;60850;52.502;13.426;2023-03-03T04:48:24;101846.06;;;1.23;100.00
56928;BME280;60850;52.502;13.426;2023-03-03T04:50:51;101848.75;;;1.24;100.00
56928;BME280;60850;52.502;13.426;2023-03-03T04:53:18;101843.53;;;1.26;100.00
56928;BME280;60850;52.502;13.426;2023-03-03T04:55:45;101844.41;;;1.26;100.00
56928;BME280;60850;52.502;13.426;2023-03-03T04:58:12;101848.84;;;1.27;100.00
56928;BME280;60850;52.502;13.426;2023-03-03T05:00:41;101851.50;;;1.29;100.00
56928;BME280;60850;52.502;13.426;2023-03-03T05:03:11;101847.94;;;1.27;100.00
56928;BME280;60850;52.502;13.426;2023-03-03T05:05:39;101841.75;;;1.25;100.00
56928;BME280;60850;52.502;13.426;2023-03-03T05:08:06;101847.94;;;1.27;100.00
56928;BME280;60850;52.502;13.426;2023-03-03T05:10:33;101834.69;;;1.22;100.00
56928;BME280;60850;52.502;13.426;2023-03-03T05:13:00;101840.81;;;1.23;100.00
56928;BME280;60850;52.502;13.426;2023-03-03T05:15:27;101845.19;;;1.22;100.00
56928;BME280;60850;52.502;13.426;2023-03-03T05:17:55;101838.19;;;1.23;100.00
56928;BME280;60850;52.502;13.426;2023-03-03T05:20:22;101839.91;;;1.21;100.00
56928;BME280;60850;52.502;13.426;2023-03-03T05:22:50;101837.97;;;1.15;100.00
56928;BME280;60850;52.502;13.426;2023-03-03T05:25:17;101831.84;;;1.15;100.00
56928;BME280;60850;52.502;13.426;2023-03-03T05:27:44;101824.72;;;1.12;100.00
56928;BME280;60850;52.502;13.426;2023-03-03T05:30:12;101829.06;;;1.10;100.00
56928;BME280;60850;52.502;13.426;2023-03-03T05:32:39;101837.97;;;1.15;100.00
56928;BME280;60850;52.502;13.426;2023-03-03T05:35:08;101845.06;;;1.19;100.00
56928;BME280;60850;52.502;13.426;2023-03-03T05:37:35;101847.78;;;1.21;100.00
56928;BME280;60850;52.502;13.426;2023-03-03T05:40:01;101848.84;;;1.27;100.00
56928;BME280;60850;52.502;13.426;2023-03-03T05:42:30;101858.44;;;1.27;100.00
56928;BME280;60850;52.502;13.426;2023-03-03T05:44:56;101854.16;;;1.30;100.00
56928;BME280;60850;52.502;13.426;2023-03-03T05:47:23;101863.97;;;1.36;100.00
56928;BME280;60850;52.502;13.426;2023-03-03T05:49:50;101863.97;;;1.36;100.00
56928;BME280;60850;52.502;13.426;2023-03-03T05:52:19;101871.72;;;1.31;100.00
56928;BME280;60850;52.502;13.426;2023-03-03T05:54:46;101870.81;;;1.31;100.00
56928;BME280;60850;52.502;13.426;2023-03-03T05:57:13;101861.13;;;1.28;100.00
56928;BME280;60850;52.502;13.426;2023-03-03T05:59:40;101858.28;;;1.21;100.00
56928;BME280;60850;52.502;13.426;2023-03-03T06:02:07;101874.13;;;1.24;100.00
56928;BME280;60850;52.502;13.426;2023-03-03T06:04:34;101868.06;;;1.26;100.00
56928;BME280;60850;52.502;13.426;2023-03-03T06:07:01;101869.78;;;1.26;100.00
56928;BME280;60850;52.502;13.426;2023-03-03T06:09:29;101866.31;;;1.27;100.00
56928;BME280;60850;52.502;13.426;2023-03-03T06:11:56;101869.00;;;1.28;100.00
56928;BME280;60850;52.502;13.426;2023-03-03T06:14:23;101869.06;;;1.30;100.00
56928;BME280;60850;52.502;13.426;2023-03-03T06:16:50;101864.72;;;1.32;100.00
56928;BME280;60850;52.502;13.426;2023-03-03T06:19:17;101873.59;;;1.35;100.00
56928;BME280;60850;52.502;13.426;2023-03-03T06:21:44;101873.72;;;1.40;100.00
56928;BME280;60850;52.502;13.426;2023-03-03T06:24:11;101874.59;;;1.41;100.00
56928;BME280;60850;52.502;13.426;2023-03-03T06:26:39;101884.31;;;1.43;100.00
56928;BME280;60850;52.502;13.426;2023-03-03T06:29:06;101887.03;;;1.46;100.00
56928;BME280;60850;52.502;13.426;2023-03-03T06:31:33;101888.78;;;1.46;100.00
56928;BME280;60850;52.502;13.426;2023-03-03T06:34:01;101893.97;;;1.44;100.00
56928;BME280;60850;52.502;13.426;2023-03-03T06:36:28;101890.50;;;1.45;100.00
56928;BME280;60850;52.502;13.426;2023-03-03T06:38:55;101893.06;;;1.42;100.00
56928;BME280;60850;52.502;13.426;2023-03-03T06:41:22;101886.94;;;1.43;100.00
56928;BME280;60850;52.502;13.426;2023-03-03T06:43:50;101879.81;;;1.39;100.00
56928;BME280;60850;52.502;13.426;2023-03-03T06:46:17;101885.88;;;1.36;100.00
56928;BME280;60850;52.502;13.426;2023-03-03T06:48:44;101892.88;;;1.36;100.00
56928;BME280;60850;52.502;13.426;2023-03-03T06:51:21;101888.53;;;1.38;100.00
56928;BME280;60850;52.502;13.426;2023-03-03T06:53:51;101894.66;;;1.37;100.00
56928;BME280;60850;52.502;13.426;2023-03-03T06:56:19;101906.94;;;1.38;100.00
56928;BME280;60850;52.502;13.426;2023-03-03T06:58:46;101907.97;;;1.43;100.00
56928;BME280;60850;52.502;13.426;2023-03-03T07:01:16;101913.34;;;1.48;100.00
56928;BME280;60850;52.502;13.426;2023-03-03T07:03:43;101923.16;;;1.53;100.00
56928;BME280;60850;52.502;13.426;2023-03-03T07:06:20;101924.03;;;1.54;100.00
56928;BME280;60850;52.502;13.426;2023-03-03T07:08:48;101930.25;;;1.56;100.00
56928;BME280;60850;52.502;13.426;2023-03-03T07:11:18;101919.84;;;1.60;100.00
56928;BME280;60850;52.502;13.426;2023-03-03T07:13:47;101906.88;;;1.67;100.00
56928;BME280;60850;52.502;13.426;2023-03-03T07:16:17;101918.44;;;1.72;100.00
56928;BME280;60850;52.502;13.426;2023-03-03T07:18:48;101922.03;;;1.75;100.00
56928;BME280;60850;52.502;13.426;2023-03-03T07:21:18;101932.66;;;1.78;100.00
56928;BME280;60850;52.502;13.426;2023-03-03T07:23:47;101933.53;;;1.79;100.00
56928;BME280;60850;52.502;13.426;2023-03-03T07:26:17;101929.97;;;1.77;100.00
56928;BME280;60850;52.502;13.426;2023-03-03T07:28:50;101928.16;;;1.76;100.00
56928;BME280;60850;52.502;13.426;2023-03-03T07:31:38;101935.25;;;1.77;100.00
56928;BME280;60850;52.502;13.426;2023-03-03T07:34:16;101941.25;;;1.73;100.00
56928;BME280;60850;52.502;13.426;2023-03-03T07:36:46;101932.22;;;1.63;100.00
56928;BME280;60850;52.502;13.426;2023-03-03T07:39:24;101937.59;;;1.68;100.00
56928;BME280;60850;52.502;13.426;2023-03-03T07:41:53;101927.91;;;1.67;100.00
56928;BME280;60850;52.502;13.426;2023-03-03T07:44:21;101942.13;;;1.73;100.00
56928;BME280;60850;52.502;13.426;2023-03-03T07:46:53;101945.81;;;1.80;100.00
56928;BME280;60850;52.502;13.426;2023-03-03T07:51:47;101938.97;;;1.85;100.00
56928;BME280;60850;52.502;13.426;2023-03-03T07:54:28;101954.81;;;1.88;100.00
56928;BME280;60850;52.502;13.426;2023-03-03T07:56:57;101953.03;;;1.87;100.00
56928;BME280;60850;52.502;13.426;2023-03-03T07:59:28;101957.59;;;1.92;100.00
56928;BME280;60850;52.502;13.426;2023-03-03T08:01:58;101950.81;;;2.01;100.00
56928;BME280;60850;52.502;13.426;2023-03-03T08:04:31;101956.31;;;2.10;100.00
56928;BME280;60850;52.502;13.426;2023-03-03T08:07:02;101958.44;;;2.23;100.00
56928;BME280;60850;52.502;13.426;2023-03-03T08:09:47;101956.00;;;2.31;100.00
56928;BME280;60850;52.502;13.426;2023-03-03T08:12:22;101950.78;;;2.32;100.00
56928;BME280;60850;52.502;13.426;2023-03-03T08:14:53;101959.72;;;2.39;100.00
56928;BME280;60850;52.502;13.426;2023-03-03T08:17:22;101947.72;;;2.48;100.00
56928;BME280;60850;52.502;13.426;2023-03-03T08:19:52;101943.44;;;2.54;100.00
56928;BME280;60850;52.502;13.426;2023-03-03T08:22:24;101949.75;;;2.60;100.00
56928;BME280;60850;52.502;13.426;2023-03-03T08:24:56;101937.59;;;2.65;100.00
56928;BME280;60850;52.502;13.426;2023-03-03T08:27:23;101941.38;;;2.75;100.00
56928;BME280;60850;52.502;13.426;2023-03-03T08:29:50;101946.81;;;2.83;100.00
56928;BME280;60850;52.502;13.426;2023-03-03T08:32:16;101949.72;;;2.95;100.00
56928;BME280;60850;52.502;13.426;2023-03-03T08:34:45;101944.72;;;3.06;100.00
56928;BME280;60850;52.502;13.426;2023-03-03T08:37:14;101944.91;;;3.13;100.00
56928;BME280;60850;52.502;13.426;2023-03-03T08:39:41;101950.94;;;3.09;100.00
56928;BME280;60850;52.502;13.426;2023-03-03T08:42:08;101951.03;;;3.12;100.00
56928;BME280;60850;52.502;13.426;2023-03-03T08:44:35;101946.66;;;3.13;100.00
56928;BME280;60850;52.502;13.426;2023-03-03T08:47:02;101947.53;;;3.13;100.00
56928;BME280;60850;52.502;13.426;2023-03-03T08:49:29;101950.19;;;3.15;100.00
56928;BME280;60850;52.502;13.426;2023-03-03T08:51:58;101959.00;;;3.15;100.00
56928;BME280;60850;52.502;13.426;2023-03-03T08:54:25;101956.63;;;3.26;100.00
56928;BME280;60850;52.502;13.426;2023-03-03T08:56:52;101949.66;;;3.29;100.00
56928;BME280;60850;52.502;13.426;2023-03-03T08:59:19;101952.41;;;3.34;100.00
56928;BME280;60850;52.502;13.426;2023-03-03T09:01:46;101953.44;;;3.41;100.00
56928;BME280;60850;52.502;13.426;2023-03-03T09:04:13;101950.13;;;3.51;100.00
56928;BME280;60850;52.502;13.426;2023-03-03T09:06:40;101946.72;;;3.55;100.00
56928;BME280;60850;52.502;13.426;2023-03-03T09:09:08;101945.88;;;3.57;100.00
56928;BME280;60850;52.502;13.426;2023-03-03T09:11:35;101938.13;;;3.65;100.00
56928;BME280;60850;52.502;13.426;2023-03-03T09:14:09;101938.38;;;3.76;100.00
56928;BME280;60850;52.502;13.426;2023-03-03T09:16:37;101935.75;;;3.77;100.00
56928;BME280;60850;52.502;13.426;2023-03-03T09:19:23;101930.75;;;3.91;100.00
56928;BME280;60850;52.502;13.426;2023-03-03T09:21:51;101931.88;;;4.02;100.00
56928;BME280;60850;52.502;13.426;2023-03-03T09:24:25;101931.28;;;4.17;100.00
56928;BME280;60850;52.502;13.426;2023-03-03T09:26:52;101934.09;;;4.28;100.00
56928;BME280;60850;52.502;13.426;2023-03-03T09:29:24;101929.84;;;4.36;100.00
56928;BME280;60850;52.502;13.426;2023-03-03T09:31:54;101941.53;;;4.50;100.00
56928;BME280;60850;52.502;13.426;2023-03-03T09:34:23;101938.19;;;4.59;100.00
56928;BME280;60850;52.502;13.426;2023-03-03T09:36:52;101934.81;;;4.69;100.00
56928;BME280;60850;52.502;13.426;2023-03-03T09:39:21;101944.53;;;4.72;100.00
56928;BME280;60850;52.502;13.426;2023-03-03T09:42:11;101939.19;;;4.65;100.00
56928;BME280;60850;52.502;13.426;2023-03-03T09:48:00;101946.25;;;4.68;100.00
56928;BME280;60850;52.502;13.426;2023-03-03T09:50:39;101944.16;;;4.49;100.00
56928;BME280;60850;52.502;13.426;2023-03-03T09:53:18;101938.69;;;4.38;100.00
56928;BME280;60850;52.502;13.426;2023-03-03T09:55:55;101936.88;;;4.35;100.00
56928;BME280;60850;52.502;13.426;2023-03-03T09:58:32;101937.28;;;4.58;100.00
56928;BME280;60850;52.502;13.426;2023-03-03T10:01:18;101943.09;;;4.90;100.00
56928;BME280;60850;52.502;13.426;2023-03-03T10:06:54;101933.41;;;5.50;100.00
56928;BME280;60850;52.502;13.426;2023-03-03T10:09:45;101934.59;;;5.73;100.00
56928;BME280;60850;52.502;13.426;2023-03-03T10:12:19;101932.94;;;5.85;100.00
56928;BME280;60850;52.502;13.426;2023-03-03T10:15:06;101941.88;;;5.91;100.00
56928;BME280;60850;52.502;13.426;2023-03-03T10:17:43;101942.91;;;6.01;100.00
56928;BME280;60850;52.502;13.426;2023-03-03T10:20:23;101940.41;;;6.18;100.00
56928;BME280;60850;52.502;13.426;2023-03-03T10:23:00;101934.41;;;6.34;100.00
56928;BME280;60850;52.502;13.426;2023-03-03T10:25:37;101938.81;;;6.32;100.00
56928;BME280;60850;52.502;13.426;2023-03-03T10:28:36;101929.91;;;6.27;100.00
56928;BME280;60850;52.502;13.426;2023-03-03T10:31:22;101933.44;;;6.23;100.00
56928;BME280;60850;52.502;13.426;2023-03-03T10:33:56;101931.53;;;6.11;100.00
56928;BME280;60850;52.502;13.426;2023-03-03T10:36:36;101928.72;;;5.97;100.00
56928;BME280;60850;52.502;13.426;2023-03-03T10:39:24;101935.81;;;6.00;100.00
56928;BME280;60850;52.502;13.426;2023-03-03T10:42:13;101926.25;;;6.13;100.00
56928;BME280;60850;52.502;13.426;2023-03-03T10:44:53;101928.19;;;6.27;100.00
56928;BME280;60850;52.502;13.426;2023-03-03T10:47:44;101942.34;;;6.32;100.00
56928;BME280;60850;52.502;13.426;2023-03-03T10:50:17;101936.28;;;6.44;100.00
56928;BME280;60850;52.502;13.426;2023-03-03T10:52:49;101939.81;;;6.42;100.00
56928;BME280;60850;52.502;13.426;2023-03-03T10:55:37;101938.72;;;6.24;100.00
56928;BME280;60850;52.502;13.426;2023-03-03T11:01:03;101948.34;;;6.15;100.00
56928;BME280;60850;52.502;13.426;2023-03-03T11:03:58;101942.09;;;6.10;100.00
56928;BME280;60850;52.502;13.426;2023-03-03T11:06:36;101946.56;;;6.14;100.00
56928;BME280;60850;52.502;13.426;2023-03-03T11:09:17;101939.75;;;6.36;100.00
56928;BME280;60850;52.502;13.426;2023-03-03T11:11:50;101941.59;;;6.44;100.00
56928;BME280;60850;52.502;13.426;2023-03-03T11:14:25;101940.72;;;6.48;100.00
56928;BME280;60850;52.502;13.426;2023-03-03T11:17:00;101934.53;;;6.48;100.00
56928;BME280;60850;52.502;13.426;2023-03-03T11:19:59;101940.56;;;6.33;100.00
56928;BME280;60850;52.502;13.426;2023-03-03T11:22:37;101937.00;;;6.28;100.00
56928;BME280;60850;52.502;13.426;2023-03-03T11:25:15;101936.94;;;6.22;100.00
56928;BME280;60850;52.502;13.426;2023-03-03T11:28:13;101934.31;;;6.26;100.00
56928;BME280;60850;52.502;13.426;2023-03-03T11:30:56;101939.59;;;6.23;100.00
56928;BME280;60850;52.502;13.426;2023-03-03T11:33:31;101932.63;;;6.31;100.00
56928;BME280;60850;52.502;13.426;2023-03-03T11:36:08;101944.09;;;6.32;100.00
56928;BME280;60850;52.502;13.426;2023-03-03T11:38:47;101935.34;;;6.38;100.00
56928;BME280;60850;52.502;13.426;2023-03-03T11:41:25;101924.78;;;6.42;100.00
56928;BME280;60850;52.502;13.426;2023-03-03T11:43:58;101924.06;;;6.60;100.00
56928;BME280;60850;52.502;13.426;2023-03-03T11:46:33;101917.06;;;6.68;100.00
56928;BME280;60850;52.502;13.426;2023-03-03T11:49:04;101931.28;;;6.79;100.00
56928;BME280;60850;52.502;13.426;2023-03-03T11:51:43;101924.22;;;6.80;100.00
56928;BME280;60850;52.502;13.426;2023-03-03T11:54:18;101919.81;;;6.77;100.00
56928;BME280;60850;52.502;13.426;2023-03-03T11:56:46;101918.03;;;6.78;100.00
56928;BME280;60850;52.502;13.426;2023-03-03T11:59:41;101903.88;;;6.76;100.00
56928;BME280;60850;52.502;13.426;2023-03-03T12:05:40;101892.13;;;6.42;100.00
56928;BME280;60850;52.502;13.426;2023-03-03T12:08:22;101898.31;;;6.45;100.00
56928;BME280;60850;52.502;13.426;2023-03-03T12:10:59;101889.44;;;6.37;100.00
56928;BME280;60850;52.502;13.426;2023-03-03T12:13:38;101892.13;;;6.42;100.00
56928;BME280;60850;52.502;13.426;2023-03-03T12:16:13;101888.66;;;6.50;100.00
56928;BME280;60850;52.502;13.426;2023-03-03T12:18:52;101884.25;;;6.52;100.00
56928;BME280;60850;52.502;13.426;2023-03-03T12:21:33;101882.44;;;6.48;100.00
56928;BME280;60850;52.502;13.426;2023-03-03T12:24:20;101874.59;;;6.56;100.00
56928;BME280;60850;52.502;13.426;2023-03-03T12:26:57;101869.34;;;6.65;100.00
56928;BME280;60850;52.502;13.426;2023-03-03T12:29:34;101860.56;;;6.75;100.00
56928;BME280;60850;52.502;13.426;2023-03-03T12:32:15;101857.13;;;6.85;100.00
56928;BME280;60850;52.502;13.426;2023-03-03T12:34:51;101860.63;;;6.78;100.00
56928;BME280;60850;52.502;13.426;2023-03-03T12:37:28;101859.78;;;6.85;100.00
56928;BME280;60850;52.502;13.426;2023-03-03T12:40:07;101853.59;;;6.88;100.00
56928;BME280;60850;52.502;13.426;2023-03-03T12:42:44;101862.47;;;6.93;100.00
56928;BME280;60850;52.502;13.426;2023-03-03T12:45:23;101856.25;;;6.85;100.00
56928;BME280;60850;52.502;13.426;2023-03-03T12:47:59;101861.44;;;6.70;100.00
56928;BME280;60850;52.502;13.426;2023-03-03T12:50:34;101854.44;;;6.81;100.00
56928;BME280;60850;52.502;13.426;2023-03-03T12:53:12;101847.41;;;6.86;100.00
56928;BME280;60850;52.502;13.426;2023-03-03T12:55:48;101851.88;;;6.92;100.00
56928;BME280;60850;52.502;13.426;2023-03-03T12:58:26;101851.88;;;6.92;100.00
56928;BME280;60850;52.502;13.426;2023-03-03T13:01:02;101849.13;;;6.81;100.00
56928;BME280;60850;52.502;13.426;2023-03-03T13:03:39;101839.31;;;6.69;100.00
56928;BME280;60850;52.502;13.426;2023-03-03T13:06:15;101842.66;;;6.41;100.00
56928;BME280;60850;52.502;13.426;2023-03-03T13:09:02;101833.75;;;6.31;100.00
56928;BME280;60850;52.502;13.426;2023-03-03T13:11:46;101843.47;;;6.32;100.00
56928;BME280;60850;52.502;13.426;2023-03-03T13:14:23;101827.69;;;6.44;100.00
56928;BME280;60850;52.502;13.426;2023-03-03T13:17:01;101828.63;;;6.52;100.00
56928;BME280;60850;52.502;13.426;2023-03-03T13:19:32;101830.44;;;6.59;100.00